Time;durP1;ratioP1;P1;durP2;ratioP2;P2;SDS_P1;SDS_P2;PMS_P1;PMS_P2;Temp;Humidity;BMP_temperature;BMP_pressure;BME280_temperature;BME280_humidity;BME280_pressure;Samples;Min_cycle;Max_cycle;Signal;HPM_P1;HPM_P2
2022/02/15 00:01:34;;;;;;;3.60;2.40;;;9.50;92.10;;;;;;5036084;28;20021;-49
2022/02/15 00:04:00;;;;;;;2.65;2.20;;;9.50;92.20;;;;;;5032580;28;20030;-49
2022/02/15 00:06:25;;;;;;;5.70;2.33;;;9.50;92.10;;;;;;5041060;28;20091;-49
2022/02/15 00:08:51;;;;;;;4.45;2.53;;;9.50;92.20;;;;;;5042422;28;20033;-49
2022/02/15 00:11:16;;;;;;;6.25;3.05;;;9.50;92.20;;;;;;5042130;28;20071;-48
2022/02/15 00:13:42;;;;;;;3.22;2.38;;;9.50;92.20;;;;;;5044742;28;20112;-48
2022/02/15 00:16:08;;;;;;;5.03;2.25;;;9.50;92.20;;;;;;5037704;28;20022;-49
2022/02/15 00:18:33;;;;;;;4.25;2.35;;;9.50;92.20;;;;;;5045221;28;20396;-48
2022/02/15 00:21:00;;;;;;;7.22;2.63;;;9.50;92.30;;;;;;5041397;28;20620;-49
2022/02/15 00:23:26;;;;;;;5.50;2.83;;;9.50;92.30;;;;;;5044556;28;20064;-49
2022/02/15 00:25:52;;;;;;;4.75;2.95;;;9.50;92.30;;;;;;5045942;28;20067;-48
2022/02/15 00:28:18;;;;;;;3.55;2.60;;;9.50;92.40;;;;;;5047080;28;20044;-48
2022/02/15 00:30:43;;;;;;;5.57;2.58;;;9.50;92.40;;;;;;5041147;28;20025;-49
2022/02/15 00:33:09;;;;;;;4.00;2.95;;;9.50;92.40;;;;;;5042257;28;20021;-49
2022/02/15 00:35:34;;;;;;;6.82;3.03;;;9.50;92.40;;;;;;5042536;28;20364;-49
2022/02/15 00:38:00;;;;;;;4.25;2.95;;;9.50;92.40;;;;;;5044564;28;20460;-49
2022/02/15 00:40:26;;;;;;;4.70;2.78;;;9.50;92.40;;;;;;5043244;28;20033;-48
2022/02/15 00:42:51;;;;;;;4.45;2.95;;;9.50;92.40;;;;;;5041294;28;20382;-48
2022/02/15 00:45:17;;;;;;;12.48;3.50;;;9.50;92.60;;;;;;5036543;28;20025;-48
2022/02/15 00:47:43;;;;;;;4.07;2.90;;;9.50;92.40;;;;;;5035047;28;20472;-48
2022/02/15 00:50:09;;;;;;;5.20;2.95;;;9.50;92.40;;;;;;5044168;28;20128;-48
2022/02/15 00:52:35;;;;;;;6.07;3.20;;;9.50;92.50;;;;;;5040644;28;20128;-48
2022/02/15 00:55:01;;;;;;;6.95;3.53;;;9.50;92.50;;;;;;5042424;28;20491;-49
2022/02/15 00:57:26;;;;;;;5.85;3.38;;;9.50;92.60;;;;;;5038398;28;20033;-49
2022/02/15 00:59:52;;;;;;;7.43;3.83;;;9.50;92.50;;;;;;5040393;28;20020;-48
2022/02/15 01:02:18;;;;;;;4.60;3.05;;;9.50;92.60;;;;;;5039231;28;20426;-48
2022/02/15 01:04:44;;;;;;;5.20;3.08;;;9.50;92.60;;;;;;5038171;28;20030;-48
2022/02/15 01:07:10;;;;;;;3.80;2.60;;;9.50;92.50;;;;;;5042589;28;20041;-48
2022/02/15 01:09:36;;;;;;;3.78;2.65;;;9.50;92.60;;;;;;5043914;28;20029;-48
2022/02/15 01:12:01;;;;;;;5.70;3.67;;;9.50;92.50;;;;;;5041289;28;20048;-49
2022/02/15 01:14:27;;;;;;;7.72;3.85;;;9.50;92.60;;;;;;5042977;28;20021;-49
2022/02/15 01:16:53;;;;;;;4.78;3.25;;;9.50;92.60;;;;;;5032925;28;20440;-48
2022/02/15 01:19:19;;;;;;;6.65;3.40;;;9.50;92.70;;;;;;5042399;28;20027;-48
2022/02/15 01:21:44;;;;;;;5.68;3.53;;;9.50;92.70;;;;;;5043029;28;20029;-49
2022/02/15 01:24:10;;;;;;;7.07;4.32;;;9.50;92.60;;;;;;5041493;28;20056;-49
2022/02/15 01:26:36;;;;;;;8.57;4.20;;;9.40;92.50;;;;;;5042158;28;20057;-49
2022/02/15 01:29:02;;;;;;;6.53;3.00;;;9.50;92.70;;;;;;5043992;28;20102;-49
2022/02/15 01:31:28;;;;;;;9.00;5.00;;;9.40;92.60;;;;;;5036827;28;20049;-49
2022/02/15 01:33:53;;;;;;;7.43;3.95;;;9.40;92.60;;;;;;5042705;28;20130;-49
2022/02/15 01:36:19;;;;;;;13.32;4.90;;;9.40;92.60;;;;;;5041523;28;20472;-49
2022/02/15 01:38:45;;;;;;;6.97;4.15;;;9.40;92.70;;;;;;5042383;28;20409;-48
2022/02/15 01:41:10;;;;;;;10.63;4.82;;;9.40;92.60;;;;;;5043193;28;20027;-49
2022/02/15 01:43:40;;;;;;;6.78;3.58;;;9.50;92.70;;;;;;5040659;28;20037;-49
2022/02/15 01:46:07;;;;;;;8.88;4.63;;;9.50;92.60;;;;;;5042902;28;20029;-48
2022/02/15 01:48:34;;;;;;;6.22;3.88;;;9.50;92.80;;;;;;5039397;28;20041;-48
2022/02/15 01:51:00;;;;;;;8.07;4.05;;;9.50;92.90;;;;;;5039390;28;20421;-49
2022/02/15 01:53:25;;;;;;;7.45;4.63;;;9.40;92.80;;;;;;5042894;28;20031;-49
2022/02/15 01:55:51;;;;;;;10.50;4.97;;;9.50;92.90;;;;;;5040796;28;20025;-48
2022/02/15 01:58:17;;;;;;;9.57;4.95;;;9.50;92.90;;;;;;5041445;28;20029;-48
2022/02/15 02:00:43;;;;;;;11.15;4.85;;;9.50;92.90;;;;;;5042925;28;20076;-49
2022/02/15 02:03:09;;;;;;;6.88;4.30;;;9.50;93.00;;;;;;5035875;28;20284;-48
2022/02/15 02:05:49;;;;;;;9.27;4.88;;;9.50;92.90;;;;;;5039704;28;20052;-48
2022/02/15 02:08:16;;;;;;;8.10;4.35;;;9.50;92.90;;;;;;5041108;28;20057;-48
2022/02/15 02:10:43;;;;;;;8.30;4.72;;;9.50;93.00;;;;;;5041077;28;20395;-48
2022/02/15 02:13:08;;;;;;;9.15;5.00;;;9.50;93.00;;;;;;5035906;28;20088;-48
2022/02/15 02:15:34;;;;;;;10.82;4.82;;;9.50;93.00;;;;;;5039429;28;20455;-48
2022/02/15 02:18:00;;;;;;;11.65;5.60;;;9.50;93.00;;;;;;5033871;28;20032;-49
2022/02/15 02:20:26;;;;;;;9.68;5.55;;;9.50;92.80;;;;;;5039348;28;20026;-49
2022/02/15 02:22:52;;;;;;;8.98;5.43;;;9.50;92.90;;;;;;5042291;28;20032;-48
2022/02/15 02:25:20;;;;;;;7.55;4.70;;;9.40;93.00;;;;;;5040946;28;20022;-48
2022/02/15 02:27:46;;;;;;;12.45;5.90;;;9.50;93.00;;;;;;5039560;28;20033;-48
2022/02/15 02:30:13;;;;;;;10.32;5.22;;;9.50;93.10;;;;;;5041661;28;20033;-48
2022/02/15 02:32:39;;;;;;;10.13;5.50;;;9.50;93.10;;;;;;5034916;28;20060;-49
2022/02/15 02:35:05;;;;;;;9.93;5.10;;;9.50;93.10;;;;;;5039896;28;20106;-49
2022/02/15 02:37:33;;;;;;;8.93;5.18;;;9.50;93.10;;;;;;5041412;28;20029;-49
2022/02/15 02:40:02;;;;;;;11.27;4.93;;;9.50;93.10;;;;;;5041357;28;20096;-49
2022/02/15 02:42:29;;;;;;;11.88;4.97;;;9.50;93.00;;;;;;5037163;28;20113;-49
2022/02/15 02:45:07;;;;;;;8.35;3.80;;;9.40;93.10;;;;;;5042433;28;20237;-49
2022/02/15 02:47:33;;;;;;;10.85;5.13;;;9.40;93.10;;;;;;5032553;28;20045;-49
2022/02/15 02:49:59;;;;;;;13.20;5.38;;;9.40;93.10;;;;;;5042490;28;20025;-49
2022/02/15 02:52:25;;;;;;;7.85;4.35;;;9.50;93.20;;;;;;5040376;28;20025;-49
2022/02/15 02:54:51;;;;;;;9.25;5.30;;;9.40;93.10;;;;;;5039914;28;20014;-49
2022/02/15 02:57:17;;;;;;;9.18;5.80;;;9.40;93.10;;;;;;5042464;28;20037;-49
2022/02/15 02:59:48;;;;;;;10.38;5.40;;;9.40;93.20;;;;;;5040575;28;20021;-49
2022/02/15 03:02:13;;;;;;;;;;;9.40;93.10;;;;;;5027475;28;20036;-49
2022/02/15 03:04:39;;;;;;;11.65;5.05;;;9.40;93.00;;;;;;5039315;28;19905;-49
2022/02/15 03:07:05;;;;;;;9.13;4.78;;;9.50;93.10;;;;;;5042720;28;20060;-49
2022/02/15 03:09:31;;;;;;;11.05;5.72;;;9.40;93.20;;;;;;5039870;28;20026;-49
2022/02/15 03:11:57;;;;;;;9.40;5.28;;;9.40;93.20;;;;;;5039313;28;20021;-49
2022/02/15 03:14:23;;;;;;;13.50;5.95;;;9.50;93.20;;;;;;5041506;28;20100;-49
2022/02/15 03:16:49;;;;;;;9.65;5.10;;;9.40;93.10;;;;;;5040640;28;20030;-49
2022/02/15 03:19:14;;;;;;;9.73;5.38;;;9.50;93.30;;;;;;5036243;28;20454;-49
2022/02/15 03:21:40;;;;;;;12.15;6.18;;;9.40;93.30;;;;;;5032466;28;20037;-49
2022/02/15 03:24:06;;;;;;;10.13;5.32;;;9.40;93.30;;;;;;5040726;28;20024;-49
2022/02/15 03:26:31;;;;;;;7.90;4.10;;;9.50;93.30;;;;;;5034759;28;20037;-49
2022/02/15 03:28:57;;;;;;;6.78;3.65;;;9.50;93.20;;;;;;5039763;28;20041;-49
2022/02/15 03:31:23;;;;;;;12.40;6.57;;;9.40;93.20;;;;;;5036396;28;20025;-48
2022/02/15 03:33:49;;;;;;;14.85;7.03;;;9.40;93.30;;;;;;5031892;28;20037;-49
2022/02/15 03:36:15;;;;;;;11.60;5.60;;;9.50;93.30;;;;;;5035254;28;20029;-49
2022/02/15 03:38:42;;;;;;;9.05;4.45;;;9.40;93.20;;;;;;5038181;28;20025;-48
2022/02/15 03:44:12;;;;;;;11.63;5.43;;;9.40;93.40;;;;;;5040045;28;20065;-49
2022/02/15 03:46:37;;;;;;;12.40;6.18;;;9.50;93.40;;;;;;5042053;28;20055;-49
2022/02/15 03:49:03;;;;;;;11.27;6.05;;;9.40;93.40;;;;;;5039958;28;20281;-49
2022/02/15 03:51:28;;;;;;;11.07;5.82;;;9.40;93.30;;;;;;5039645;28;20108;-49
2022/02/15 03:53:54;;;;;;;10.50;5.95;;;9.40;93.40;;;;;;5042694;28;20079;-49
2022/02/15 03:56:20;;;;;;;12.93;5.45;;;9.50;93.40;;;;;;5039991;28;20072;-49
2022/02/15 03:58:52;;;;;;;11.15;6.32;;;9.40;93.40;;;;;;5042244;28;20031;-49
2022/02/15 04:01:18;;;;;;;12.13;6.05;;;9.50;93.50;;;;;;5034721;28;20033;-49
2022/02/15 04:03:43;;;;;;;9.38;5.55;;;9.40;93.50;;;;;;5039660;28;20048;-49
2022/02/15 04:06:09;;;;;;;14.77;5.45;;;9.40;93.40;;;;;;5038406;28;20107;-49
2022/02/15 04:08:35;;;;;;;11.27;6.40;;;9.40;93.40;;;;;;5038877;28;20041;-49
2022/02/15 04:11:00;;;;;;;8.77;4.55;;;9.50;93.40;;;;;;5041862;28;20111;-49
2022/02/15 04:13:26;;;;;;;10.52;4.38;;;9.40;93.50;;;;;;5040680;28;20041;-49
2022/02/15 04:15:51;;;;;;;10.88;4.28;;;9.40;93.50;;;;;;5040779;28;20059;-49
2022/02/15 04:18:17;;;;;;;11.43;4.93;;;9.40;93.40;;;;;;5040434;28;20030;-49
2022/02/15 04:20:42;;;;;;;11.23;5.38;;;9.40;93.50;;;;;;5042785;28;20465;-49
2022/02/15 04:23:08;;;;;;;10.13;5.07;;;9.40;93.40;;;;;;5047773;28;20024;-49
2022/02/15 04:25:34;;;;;;;11.00;5.32;;;9.40;93.30;;;;;;5045671;28;20040;-49
2022/02/15 04:28:00;;;;;;;7.85;3.70;;;9.40;93.50;;;;;;5041893;28;20037;-49
2022/02/15 04:30:26;;;;;;;8.75;4.53;;;9.50;93.40;;;;;;5044597;28;20086;-49
2022/02/15 04:32:52;;;;;;;6.97;4.43;;;9.40;93.50;;;;;;5038122;28;20425;-49
2022/02/15 04:35:18;;;;;;;8.65;4.07;;;9.50;93.50;;;;;;5040907;28;20116;-49
2022/02/15 04:37:43;;;;;;;9.10;5.13;;;9.50;93.50;;;;;;5043918;28;20374;-49
2022/02/15 04:40:09;;;;;;;12.65;5.03;;;9.40;93.40;;;;;;5044263;28;20031;-49
2022/02/15 04:42:35;;;;;;;10.98;5.10;;;9.40;93.50;;;;;;5037134;28;20339;-49
2022/02/15 04:45:01;;;;;;;9.60;4.93;;;9.50;93.70;;;;;;5042629;28;20033;-49
2022/02/15 04:47:26;;;;;;;11.05;5.20;;;9.40;93.50;;;;;;5044421;28;20037;-49
2022/02/15 04:49:52;;;;;;;11.43;4.90;;;9.40;93.60;;;;;;5037955;28;20040;-49
2022/02/15 04:52:17;;;;;;;8.40;3.55;;;9.40;93.50;;;;;;5041653;28;20057;-49
2022/02/15 04:54:43;;;;;;;9.90;4.53;;;9.40;93.60;;;;;;5042220;28;20033;-49
2022/02/15 04:57:08;;;;;;;10.35;4.85;;;9.40;93.70;;;;;;5043703;28;20544;-49
2022/02/15 04:59:34;;;;;;;5.32;3.72;;;9.40;93.40;;;;;;5043875;28;20028;-49
2022/02/15 05:02:00;;;;;;;8.30;4.57;;;9.40;93.50;;;;;;5041099;28;20060;-49
2022/02/15 05:07:10;;;;;;;9.63;4.18;;;9.40;93.60;;;;;;5040620;28;20148;-49
2022/02/15 05:09:35;;;;;;;11.35;4.38;;;9.40;93.60;;;;;;5041950;28;20101;-49
2022/02/15 05:12:01;;;;;;;9.13;4.72;;;9.50;93.70;;;;;;5042366;28;20100;-49
2022/02/15 05:14:26;;;;;;;7.80;4.50;;;9.40;93.60;;;;;;5043643;28;20331;-49
2022/02/15 05:16:52;;;;;;;9.27;4.68;;;9.40;93.90;;;;;;5040620;28;20136;-49
2022/02/15 05:19:17;;;;;;;8.85;5.07;;;9.40;93.70;;;;;;5038846;28;20041;-49
2022/02/15 05:21:43;;;;;;;7.32;4.07;;;9.40;93.60;;;;;;5042828;28;20410;-49
2022/02/15 05:24:09;;;;;;;6.60;3.33;;;9.40;93.60;;;;;;5041073;28;20033;-49
2022/02/15 05:26:34;;;;;;;10.93;3.88;;;9.40;93.60;;;;;;5042176;28;20041;-49
2022/02/15 05:29:00;;;;;;;7.03;2.65;;;9.40;93.60;;;;;;5044010;28;20037;-49
2022/02/15 05:31:26;;;;;;;7.78;4.40;;;9.40;93.50;;;;;;5042522;28;20435;-49
2022/02/15 05:33:52;;;;;;;8.40;3.92;;;9.40;93.60;;;;;;5034020;28;20388;-49
2022/02/15 05:36:18;;;;;;;7.15;4.03;;;9.40;93.70;;;;;;5039313;28;20021;-49
2022/02/15 05:38:44;;;;;;;5.35;3.83;;;9.40;93.70;;;;;;5042597;28;20043;-49
2022/02/15 05:41:09;;;;;;;8.93;4.22;;;9.40;93.80;;;;;;5043045;28;20224;-49
2022/02/15 05:43:35;;;;;;;7.40;4.38;;;9.40;93.60;;;;;;5035103;28;20430;-50
2022/02/15 05:46:00;;;;;;;7.78;3.95;;;9.40;93.70;;;;;;5034662;28;20025;-49
2022/02/15 05:48:26;;;;;;;7.38;3.65;;;9.40;93.60;;;;;;5031738;28;20044;-49
2022/02/15 05:50:55;;;;;;;7.30;3.60;;;9.40;93.60;;;;;;5035169;28;20033;-49
2022/02/15 05:53:22;;;;;;;8.68;5.00;;;9.40;93.70;;;;;;5040788;28;20439;-49
2022/02/15 05:55:51;;;;;;;6.70;3.35;;;9.40;93.80;;;;;;5040221;28;20362;-50
2022/02/15 05:58:17;;;;;;;6.13;4.15;;;9.40;93.60;;;;;;5041297;28;20029;-49
2022/02/15 06:00:42;;;;;;;7.70;4.05;;;9.40;93.70;;;;;;5043215;28;20082;-50
2022/02/15 06:05:52;;;;;;;7.10;3.33;;;9.40;93.80;;;;;;5036238;28;20076;-49
2022/02/15 06:08:18;;;;;;;10.80;3.95;;;9.40;93.80;;;;;;5042924;28;20446;-50
2022/02/15 06:10:46;;;;;;;8.00;4.05;;;9.50;93.90;;;;;;5037015;28;20021;-49
2022/02/15 06:13:15;;;;;;;3.80;2.63;;;9.40;93.90;;;;;;5040703;28;20108;-49
2022/02/15 06:15:41;;;;;;;6.72;4.07;;;9.40;93.70;;;;;;5043125;28;20052;-49
2022/02/15 06:18:07;;;;;;;8.32;4.00;;;9.40;93.70;;;;;;5041717;28;20053;-49
2022/02/15 06:20:32;;;;;;;5.15;3.08;;;9.50;93.80;;;;;;5036120;28;20450;-49
2022/02/15 06:22:58;;;;;;;7.07;3.95;;;9.40;93.70;;;;;;5038946;28;20064;-49
2022/02/15 06:25:23;;;;;;;7.13;4.00;;;9.50;93.80;;;;;;5041264;28;20018;-50
2022/02/15 06:27:49;;;;;;;6.63;3.95;;;9.50;93.90;;;;;;5042364;28;20447;-49
2022/02/15 06:30:14;;;;;;;8.15;3.45;;;9.50;94.00;;;;;;5040787;28;20159;-49
2022/02/15 06:32:40;;;;;;;12.75;4.00;;;9.40;93.80;;;;;;5039807;28;20111;-49
2022/02/15 06:35:07;;;;;;;4.30;2.90;;;9.40;93.90;;;;;;5034226;28;20184;-52
2022/02/15 06:37:34;;;;;;;8.35;3.58;;;9.40;93.70;;;;;;5032413;28;20033;-52
2022/02/15 06:40:00;;;;;;;5.68;3.25;;;9.40;93.80;;;;;;5036733;28;20033;-53
2022/02/15 06:42:26;;;;;;;7.05;4.00;;;9.40;93.80;;;;;;5034969;28;20057;-53
2022/02/15 06:44:52;;;;;;;6.32;3.25;;;9.40;93.80;;;;;;5030475;28;20029;-53
2022/02/15 06:47:18;;;;;;;5.43;3.25;;;9.40;93.80;;;;;;5035359;28;20029;-53
2022/02/15 06:49:43;;;;;;;6.57;3.25;;;9.40;93.80;;;;;;5037311;28;20244;-53
2022/02/15 06:52:09;;;;;;;8.15;3.83;;;9.50;93.70;;;;;;5035012;28;20438;-53
2022/02/15 06:54:34;;;;;;;5.30;3.30;;;9.50;93.90;;;;;;5036614;28;20040;-53
2022/02/15 06:57:00;;;;;;;8.60;3.88;;;9.50;93.80;;;;;;5040525;28;20450;-53
2022/02/15 06:59:26;;;;;;;5.72;3.42;;;9.40;93.80;;;;;;5039353;28;20072;-53
2022/02/15 07:01:51;;;;;;;4.00;2.88;;;9.40;93.70;;;;;;5040127;28;20473;-53
2022/02/15 07:04:17;;;;;;;4.82;3.17;;;9.40;93.70;;;;;;5032836;28;20034;-52
2022/02/15 07:06:42;;;;;;;6.03;3.17;;;9.40;93.70;;;;;;5037334;28;20353;-53
2022/02/15 07:09:08;;;;;;;3.85;2.78;;;9.40;93.70;;;;;;5041021;28;20033;-53
2022/02/15 07:11:34;;;;;;;7.10;4.22;;;9.40;93.80;;;;;;5040988;28;20025;-53
2022/02/15 07:14:00;;;;;;;4.72;3.20;;;9.40;93.70;;;;;;5038935;28;20025;-53
2022/02/15 07:16:25;;;;;;;7.30;3.45;;;9.50;93.80;;;;;;5039890;28;20081;-53
2022/02/15 07:18:51;;;;;;;4.57;3.10;;;9.40;93.80;;;;;;5041968;28;20027;-52
2022/02/15 07:21:17;;;;;;;8.18;4.05;;;9.40;93.70;;;;;;5033552;28;20504;-53
2022/02/15 07:23:43;;;;;;;5.90;4.00;;;9.40;93.90;;;;;;5040875;28;20025;-53
2022/02/15 07:26:09;;;;;;;6.82;4.00;;;9.40;93.90;;;;;;5038961;28;20045;-53
2022/02/15 07:28:35;;;;;;;7.68;3.40;;;9.40;93.90;;;;;;5037587;28;20434;-53
2022/02/15 07:31:00;;;;;;;10.23;4.35;;;9.40;93.90;;;;;;5036862;28;20025;-54
2022/02/15 07:33:26;;;;;;;8.50;4.93;;;9.50;94.00;;;;;;5036285;28;20418;-53
2022/02/15 07:35:52;;;;;;;9.55;4.10;;;9.50;94.00;;;;;;5030581;28;20028;-53
2022/02/15 07:38:17;;;;;;;7.68;4.60;;;9.50;94.40;;;;;;5040634;28;20585;-53
2022/02/15 07:40:43;;;;;;;9.20;5.07;;;9.50;94.00;;;;;;5034342;28;20034;-52
2022/02/15 07:43:09;;;;;;;8.35;4.43;;;9.50;94.00;;;;;;5038422;28;20210;-53
2022/02/15 07:45:37;;;;;;;6.68;4.65;;;9.50;94.10;;;;;;5043496;28;20032;-52
2022/02/15 07:48:03;;;;;;;6.88;3.90;;;9.50;94.00;;;;;;5041418;28;20413;-53
2022/02/15 07:50:29;;;;;;;9.15;4.53;;;9.50;94.00;;;;;;5035515;28;20490;-53
2022/02/15 07:52:55;;;;;;;8.27;4.18;;;9.50;94.10;;;;;;5041861;28;20108;-53
2022/02/15 07:55:21;;;;;;;6.70;3.70;;;9.50;94.10;;;;;;5036969;28;20367;-53
2022/02/15 07:57:47;;;;;;;8.70;3.83;;;9.50;94.10;;;;;;5034217;28;20033;-53
2022/02/15 08:00:18;;;;;;;6.90;3.50;;;9.50;94.00;;;;;;5040927;28;20025;-53
2022/02/15 08:02:45;;;;;;;10.30;4.35;;;9.50;94.00;;;;;;5036789;28;20078;-53
2022/02/15 08:05:10;;;;;;;6.75;2.85;;;9.50;94.10;;;;;;5029075;28;20462;-54
2022/02/15 08:07:37;;;;;;;6.63;3.47;;;9.50;94.10;;;;;;5040607;28;20029;-53
2022/02/15 08:10:04;;;;;;;8.43;3.90;;;9.50;94.00;;;;;;5039195;28;20040;-53
2022/02/15 08:12:29;;;;;;;7.70;3.92;;;9.50;94.00;;;;;;5039291;28;20025;-53
2022/02/15 08:14:55;;;;;;;8.90;3.58;;;9.50;94.10;;;;;;5040970;28;20032;-52
2022/02/15 08:17:20;;;;;;;5.50;3.60;;;9.50;94.00;;;;;;5039126;28;20230;-52
2022/02/15 08:19:46;;;;;;;7.47;3.80;;;9.50;94.20;;;;;;5036216;28;20037;-53
2022/02/15 08:22:12;;;;;;;3.80;2.15;;;9.50;94.10;;;;;;5032706;28;20516;-53
2022/02/15 08:24:37;;;;;;;4.40;2.33;;;9.40;94.00;;;;;;5037090;28;20022;-53
2022/02/15 08:27:03;;;;;;;5.05;3.10;;;9.40;94.00;;;;;;5040182;28;20022;-53
2022/02/15 08:29:29;;;;;;;6.25;3.72;;;9.40;94.10;;;;;;5044792;28;20025;-53
2022/02/15 08:31:55;;;;;;;6.82;4.20;;;9.40;94.00;;;;;;5043729;28;20079;-53
2022/02/15 08:34:21;;;;;;;7.90;4.00;;;9.50;94.20;;;;;;5044873;28;20029;-53
2022/02/15 08:36:46;;;;;;;6.40;3.70;;;9.40;94.10;;;;;;5033670;28;20336;-53
2022/02/15 08:39:15;;;;;;;5.05;2.97;;;9.50;94.20;;;;;;5042845;28;20579;-53
2022/02/15 08:41:42;;;;;;;5.60;3.40;;;9.50;94.10;;;;;;5042974;28;20631;-53
2022/02/15 08:44:08;;;;;;;6.97;4.03;;;9.50;94.20;;;;;;5033893;28;20116;-53
2022/02/15 08:46:33;;;;;;;6.13;2.40;;;9.40;94.10;;;;;;5038524;28;20420;-53
2022/02/15 08:48:59;;;;;;;4.05;2.42;;;9.40;94.20;;;;;;5041381;28;20091;-53
2022/02/15 08:51:25;;;;;;;5.72;2.75;;;9.40;94.10;;;;;;5032101;28;20030;-53
2022/02/15 08:53:51;;;;;;;5.57;2.90;;;9.40;94.10;;;;;;5038718;28;20022;-53
2022/02/15 08:56:18;;;;;;;5.65;3.63;;;9.50;94.20;;;;;;5041803;28;20048;-53
2022/02/15 08:58:44;;;;;;;8.40;2.78;;;9.40;94.30;;;;;;5041851;28;20029;-53
2022/02/15 09:01:10;;;;;;;5.10;2.80;;;9.40;94.20;;;;;;5039336;28;20529;-53
2022/02/15 09:03:36;;;;;;;7.40;3.50;;;9.50;94.30;;;;;;5042465;28;20071;-53
2022/02/15 09:06:02;;;;;;;6.45;3.25;;;9.50;94.40;;;;;;5024970;28;20505;-53
2022/02/15 09:08:28;;;;;;;7.85;4.30;;;9.50;94.20;;;;;;5041985;28;20527;-53
2022/02/15 09:10:54;;;;;;;6.57;4.32;;;9.50;94.30;;;;;;5041589;28;20033;-53
2022/02/15 09:13:20;;;;;;;7.53;3.85;;;9.50;94.40;;;;;;5043366;28;20401;-53
2022/02/15 09:15:46;;;;;;;4.80;2.53;;;9.50;94.30;;;;;;5042797;28;20112;-53
2022/02/15 09:18:11;;;;;;;5.82;3.83;;;9.50;94.20;;;;;;5041814;28;20030;-53
2022/02/15 09:20:38;;;;;;;5.90;3.97;;;9.50;94.30;;;;;;5036766;28;20026;-53
2022/02/15 09:23:04;;;;;;;7.43;3.60;;;9.60;94.30;;;;;;5042074;28;20033;-53
2022/02/15 09:25:30;;;;;;;6.13;3.00;;;9.50;94.30;;;;;;5041375;28;20051;-53
2022/02/15 09:27:55;;;;;;;4.53;2.90;;;9.50;94.30;;;;;;5042849;28;20473;-53
2022/02/15 09:30:21;;;;;;;4.10;2.85;;;9.50;94.30;;;;;;5043621;28;20083;-53
2022/02/15 09:32:46;;;;;;;5.65;2.70;;;9.60;94.40;;;;;;5034882;28;20429;-53
2022/02/15 09:35:12;;;;;;;4.70;3.13;;;9.50;94.30;;;;;;5041617;28;20376;-53
2022/02/15 09:37:38;;;;;;;11.40;3.53;;;9.60;94.40;;;;;;5041960;28;20060;-53
2022/02/15 09:40:05;;;;;;;5.82;2.95;;;9.60;94.30;;;;;;5039004;28;20106;-53
2022/02/15 09:42:31;;;;;;;5.70;3.08;;;9.60;94.40;;;;;;5042281;28;20099;-53
2022/02/15 09:44:57;;;;;;;6.00;3.08;;;9.60;94.40;;;;;;5040767;28;20463;-53
2022/02/15 09:47:25;;;;;;;3.35;2.50;;;9.60;94.90;;;;;;5045141;28;20509;-53
2022/02/15 09:49:52;;;;;;;8.02;3.10;;;9.60;94.50;;;;;;5043977;28;20021;-53
2022/02/15 09:52:25;;;;;;;7.65;3.22;;;9.60;94.30;;;;;;5034940;28;20026;-53
2022/02/15 09:54:52;;;;;;;5.82;3.10;;;9.60;94.40;;;;;;5038922;28;21104;-53
2022/02/15 09:57:19;;;;;;;3.55;2.40;;;9.60;94.50;;;;;;5041693;28;20057;-53
2022/02/15 09:59:50;;;;;;;6.05;2.85;;;9.60;94.60;;;;;;5041091;28;20026;-53
2022/02/15 10:02:20;;;;;;;7.38;2.70;;;9.60;94.40;;;;;;5041818;28;20447;-53
2022/02/15 10:04:54;;;;;;;11.82;3.15;;;9.60;94.50;;;;;;5042220;28;20033;-53
2022/02/15 10:07:20;;;;;;;8.82;2.47;;;9.60;94.40;;;;;;5039235;28;20037;-53
2022/02/15 10:09:53;;;;;;;2.95;1.88;;;9.60;94.40;;;;;;5040493;28;20084;-54
2022/02/15 10:12:20;;;;;;;7.20;3.05;;;9.60;94.40;;;;;;5040419;28;20454;-53
2022/02/15 10:14:48;;;;;;;4.85;2.47;;;9.60;94.40;;;;;;5038238;28;20074;-53
2022/02/15 10:17:16;;;;;;;4.00;2.17;;;9.70;94.50;;;;;;5041712;28;20021;-53
2022/02/15 10:19:44;;;;;;;3.45;1.80;;;9.60;94.60;;;;;;5039024;28;20426;-53
2022/02/15 10:22:10;;;;;;;2.08;1.30;;;9.60;94.40;;;;;;5033758;28;20057;-53
2022/02/15 10:24:39;;;;;;;4.50;3.05;;;9.60;94.50;;;;;;5042719;28;20044;-53
2022/02/15 10:27:07;;;;;;;7.00;3.13;;;9.60;94.70;;;;;;5037287;28;20017;-53
2022/02/15 10:29:36;;;;;;;4.32;2.35;;;9.70;94.70;;;;;;5040775;28;20321;-52
2022/02/15 10:32:04;;;;;;;7.00;2.78;;;9.60;94.60;;;;;;5038746;28;20060;-53
2022/02/15 10:34:30;;;;;;;3.78;1.77;;;9.60;94.50;;;;;;5042200;28;20354;-53
2022/02/15 10:37:01;;;;;;;3.42;1.80;;;9.70;94.60;;;;;;5037295;28;20025;-53
2022/02/15 10:39:45;;;;;;;3.75;2.45;;;9.70;94.70;;;;;;5042051;28;20037;-52
2022/02/15 10:42:22;;;;;;;4.78;2.15;;;9.70;94.40;;;;;;5040336;28;20111;-53
2022/02/15 10:44:52;;;;;;;3.85;2.17;;;9.70;94.40;;;;;;5038678;28;20455;-53
2022/02/15 10:47:19;;;;;;;3.40;1.77;;;9.70;94.40;;;;;;5042172;28;20430;-53
2022/02/15 10:49:45;;;;;;;4.18;2.10;;;9.70;94.50;;;;;;5036318;28;20083;-53
2022/02/15 10:52:11;;;;;;;3.10;1.75;;;9.70;94.60;;;;;;5035286;28;20029;-53
2022/02/15 10:54:41;;;;;;;7.15;2.80;;;9.70;94.50;;;;;;5042229;28;20029;-53
2022/02/15 10:57:11;;;;;;;5.57;1.98;;;9.70;94.50;;;;;;5042066;28;20029;-53
2022/02/15 10:59:39;;;;;;;;;;;9.70;94.50;;;;;;5037469;28;20030;-53
2022/02/15 11:02:04;;;;;;;5.95;2.30;;;9.70;94.50;;;;;;5039513;28;19909;-53
2022/02/15 11:04:35;;;;;;;4.68;2.15;;;9.70;94.80;;;;;;5037669;28;20397;-53
2022/02/15 11:07:06;;;;;;;5.85;2.85;;;9.70;94.70;;;;;;5037897;28;20033;-53
2022/02/15 11:09:43;;;;;;;7.35;3.47;;;9.70;94.90;;;;;;5036629;28;20179;-53
2022/02/15 11:12:50;;;;;;;5.45;2.72;;;9.70;94.90;;;;;;5038361;28;20420;-53
2022/02/15 11:15:30;;;;;;;5.68;3.45;;;9.70;94.90;;;;;;5040439;28;20123;-53
2022/02/15 11:18:00;;;;;;;;;;;9.70;94.90;;;;;;5042595;28;20100;-53
2022/02/15 11:20:29;;;;;;;3.03;1.60;;;9.70;94.80;;;;;;5036598;28;19958;-53
2022/02/15 11:22:57;;;;;;;1.60;0.90;;;9.70;94.90;;;;;;5031558;28;20037;-53
2022/02/15 11:25:34;;;;;;;1.30;1.20;;;9.70;94.90;;;;;;5037441;28;20022;-53
2022/02/15 11:28:08;;;;;;;1.13;0.80;;;9.80;94.90;;;;;;5039282;28;20124;-53
2022/02/15 11:30:46;;;;;;;1.60;0.98;;;9.80;95.30;;;;;;5039464;28;20030;-53
2022/02/15 11:33:24;;;;;;;0.80;0.80;;;9.70;94.80;;;;;;5037610;28;20350;-53
2022/02/15 11:36:03;;;;;;;1.15;0.75;;;9.70;94.90;;;;;;5037679;28;20022;-53
2022/02/15 11:38:28;;;;;;;1.65;0.85;;;9.80;94.80;;;;;;5029189;28;20033;-53
2022/02/15 11:41:00;;;;;;;2.03;1.10;;;9.80;94.90;;;;;;5040104;28;20017;-53
2022/02/15 11:43:26;;;;;;;1.23;1.10;;;9.80;94.90;;;;;;5034882;28;20029;-53
2022/02/15 11:45:52;;;;;;;1.17;1.08;;;9.80;94.80;;;;;;5038886;28;20450;-53
2022/02/15 11:48:18;;;;;;;2.47;1.30;;;9.80;94.80;;;;;;5038800;28;20034;-53
2022/02/15 11:50:49;;;;;;;2.58;1.27;;;9.80;94.80;;;;;;5041208;28;20078;-53
2022/02/15 11:53:19;;;;;;;1.15;1.05;;;9.80;94.90;;;;;;5035221;28;20354;-53
2022/02/15 11:55:46;;;;;;;2.75;1.38;;;9.80;94.80;;;;;;5040120;28;20025;-53
2022/02/15 11:58:12;;;;;;;2.00;0.90;;;9.80;94.80;;;;;;5038929;28;20029;-53
2022/02/15 12:00:40;;;;;;;3.13;1.17;;;9.80;94.80;;;;;;5040668;28;20379;-53
2022/02/15 12:03:06;;;;;;;3.10;1.33;;;9.80;94.70;;;;;;5044256;28;20511;-53
2022/02/15 12:05:37;;;;;;;1.10;0.90;;;9.80;94.80;;;;;;5040733;28;20033;-54
2022/02/15 12:08:03;;;;;;;1.27;1.13;;;9.80;94.90;;;;;;5039659;28;20272;-53
2022/02/15 12:10:41;;;;;;;3.38;1.35;;;9.80;94.90;;;;;;5042550;28;20032;-53
2022/02/15 12:13:19;;;;;;;2.22;1.23;;;9.80;94.80;;;;;;5041774;28;20443;-53
2022/02/15 12:15:46;;;;;;;1.05;0.95;;;9.80;94.90;;;;;;5046875;28;20041;-53
2022/02/15 12:18:11;;;;;;;0.95;0.75;;;9.80;94.90;;;;;;5045219;28;20459;-53
2022/02/15 12:20:37;;;;;;;4.15;1.55;;;9.80;94.90;;;;;;5044099;28;20056;-53
2022/02/15 12:23:03;;;;;;;1.83;1.02;;;9.80;94.90;;;;;;5039513;28;20112;-53
2022/02/15 12:25:29;;;;;;;1.42;1.13;;;9.80;95.00;;;;;;5042679;28;20037;-53
2022/02/15 12:27:57;;;;;;;3.50;1.10;;;9.80;95.00;;;;;;5046414;28;20040;-53
2022/02/15 12:30:23;;;;;;;1.40;0.88;;;9.80;94.90;;;;;;5042697;28;20025;-53
2022/02/15 12:32:49;;;;;;;2.05;1.00;;;9.80;95.10;;;;;;5042594;28;20458;-53
2022/02/15 12:35:28;;;;;;;1.48;1.10;;;9.80;95.10;;;;;;5044878;28;20032;-53
2022/02/15 12:37:59;;;;;;;1.10;1.00;;;9.80;95.20;;;;;;5036887;28;20032;-53
2022/02/15 12:40:25;;;;;;;2.35;0.70;;;9.80;95.10;;;;;;5039718;28;20108;-53
2022/02/15 12:42:52;;;;;;;1.83;0.90;;;9.80;95.20;;;;;;5039689;28;20470;-54
2022/02/15 12:45:18;;;;;;;1.38;0.75;;;9.90;95.40;;;;;;5041644;28;20165;-53
2022/02/15 12:47:43;;;;;;;0.95;0.77;;;9.90;95.30;;;;;;5040491;28;20119;-53
2022/02/15 12:50:12;;;;;;;1.00;0.90;;;9.90;95.50;;;;;;5044152;28;20056;-53
2022/02/15 12:52:38;;;;;;;0.85;0.80;;;9.90;95.70;;;;;;5037737;28;20033;-53
2022/02/15 12:55:21;;;;;;;2.53;1.60;;;9.90;95.80;;;;;;5041243;28;20045;-53
2022/02/15 12:57:48;;;;;;;3.17;1.05;;;9.90;95.90;;;;;;5030044;28;20045;-53
2022/02/15 13:00:16;;;;;;;1.15;0.98;;;9.90;95.90;;;;;;5044262;28;20033;-53
2022/02/15 13:02:47;;;;;;;1.25;0.85;;;9.90;95.70;;;;;;5041019;28;20159;-53